Jackson Belden, Ohio
Current Conditions -  °F | °C
As of 10:51 AM on Tuesday 21 Oct 2014 (Local Time) from KCAK Reporting Station
Light Rain Light Rain  
Wind Chill: 51°   Ceiling: 900
Heat Index: 51°   Visibility: 3mi
Dew Point: 47°   Wind: 8mph
Humidity: 86%   Direction: 320°NW
Pressure: 29.92"   Gusts: NA
Location:  40.8509°N, 81.4472°W
Report Text: KCAK 211451Z 32007KT 3SM -RA BR BKN009 OVC036 11/08 A2992 RMK AO2 SLP133 P0004 60007 T01060083 51014 $
Loading
Personal Weather Stations






























Interactive Weather Map
Tropical Storm Tracking
New forecast layout! Learn more

10-Day Weather Forecast

Advertisements
Track Severe Weather on mobile